BVI62FG EDDK-EDDB
Flight info
| Callsign | BVI62FG |
|---|---|
| Flight time | N/A |
| Altitude | 35000 |
| Route | PODIP1R PODIP Y867 PELUN DCT ANZIV DCT WRB DCT NORTA DCT BATEL T207 OGBER OGBER1L |
| Aircraft | A320/M-SDE3FGHIRWY/LB1 |
Departure
| Time | 2026-04-24 16:59 |
|---|---|
| Airport | Cologne Bonn Airport (EDDK) |
Arrival
| Time | N/A |
|---|---|
| Airport | Berlin Brandenburg Airport (EDDB) |
| Time | Latitude | Longitude | Altitude | Speed | Heading |
|---|---|---|---|---|---|
| 2026-04-24 16:17 | 50.87979 | 7.12368 | 232 ft | 0 kts | 216° |
| 2026-04-24 16:52 | 50.87988 | 7.12378 | 234 ft | 4 kts | 217° |
| 2026-04-24 16:52 | 50.88009 | 7.12404 | 232 ft | 4 kts | 213° |
| 2026-04-24 16:52 | 50.88033 | 7.12423 | 232 ft | 4 kts | 188° |
| 2026-04-24 16:52 | 50.88054 | 7.12417 | 232 ft | 2 kts | 136° |
| 2026-04-24 16:53 | 50.88058 | 7.12411 | 232 ft | 0 kts | 135° |
| 2026-04-24 16:57 | 50.85505 | 7.16596 | 310 ft | 0 kts | 317° |
| 2026-04-24 16:58 | 50.85506 | 7.16596 | 307 ft | 0 kts | 317° |
| 2026-04-24 16:58 | 50.85517 | 7.16580 | 308 ft | 14 kts | 318° |
| 2026-04-24 16:58 | 50.85775 | 7.16214 | 306 ft | 83 kts | 318° |
| 2026-04-24 16:59 | 50.86349 | 7.15388 | 286 ft | 136 kts | 318° |
| 2026-04-24 16:59 | 50.87166 | 7.14243 | 359 ft | 171 kts | 319° |
| 2026-04-24 16:59 | 50.88978 | 7.11499 | 1521 ft | 181 kts | 333° |
| 2026-04-24 17:00 | 50.90209 | 7.11273 | 2147 ft | 186 kts | 13° |
| 2026-04-24 17:00 | 50.92767 | 7.13144 | 2985 ft | 212 kts | 28° |
| 2026-04-24 17:00 | 50.93813 | 7.14808 | 3643 ft | 222 kts | 57° |
| 2026-04-24 17:01 | 50.95343 | 7.19603 | 4614 ft | 260 kts | 61° |
| 2026-04-24 17:01 | 50.96142 | 7.22157 | 5455 ft | 263 kts | 61° |
| 2026-04-24 17:02 | 50.97792 | 7.27442 | 7154 ft | 270 kts | 61° |
| 2026-04-24 17:02 | 50.98634 | 7.30136 | 7987 ft | 274 kts | 61° |
| 2026-04-24 17:02 | 50.99488 | 7.32857 | 8766 ft | 278 kts | 61° |
| 2026-04-24 17:02 | 51.00358 | 7.35618 | 9516 ft | 282 kts | 61° |
| 2026-04-24 17:03 | 51.01658 | 7.41598 | 10911 ft | 299 kts | 83° |
| 2026-04-24 17:03 | 51.01551 | 7.45027 | 11116 ft | 326 kts | 101° |
| 2026-04-24 17:03 | 51.00880 | 7.48585 | 11426 ft | 343 kts | 107° |
| 2026-04-24 17:04 | 51.00145 | 7.52220 | 12029 ft | 349 kts | 106° |
| 2026-04-24 17:04 | 50.98671 | 7.59648 | 13335 ft | 357 kts | 107° |
| 2026-04-24 17:04 | 50.97929 | 7.63422 | 13957 ft | 360 kts | 107° |
| 2026-04-24 17:05 | 50.97178 | 7.67240 | 14575 ft | 364 kts | 107° |
| 2026-04-24 17:05 | 50.96421 | 7.71088 | 15156 ft | 367 kts | 107° |
| 2026-04-24 17:05 | 50.95341 | 7.79047 | 16272 ft | 373 kts | 90° |
| 2026-04-24 17:06 | 50.95547 | 7.83110 | 16812 ft | 376 kts | 78° |
| 2026-04-24 17:06 | 50.97551 | 7.90799 | 17880 ft | 381 kts | 58° |
| 2026-04-24 17:06 | 50.98909 | 7.94447 | 18398 ft | 385 kts | 58° |
| 2026-04-24 17:07 | 50.99813 | 7.96880 | 18740 ft | 388 kts | 58° |
| 2026-04-24 17:07 | 51.01656 | 8.01847 | 19426 ft | 393 kts | 58° |
| 2026-04-24 17:07 | 51.04450 | 8.09407 | 20440 ft | 400 kts | 58° |
| 2026-04-24 17:08 | 51.07252 | 8.17058 | 21380 ft | 407 kts | 58° |
| 2026-04-24 17:08 | 51.08680 | 8.20965 | 21817 ft | 410 kts | 58° |
| 2026-04-24 17:08 | 51.10117 | 8.24905 | 22245 ft | 413 kts | 58° |
| 2026-04-24 17:09 | 51.13018 | 8.32893 | 23101 ft | 419 kts | 58° |
| 2026-04-24 17:09 | 51.15951 | 8.41000 | 23913 ft | 426 kts | 58° |
| 2026-04-24 17:10 | 51.17431 | 8.45114 | 24307 ft | 429 kts | 58° |
| 2026-04-24 17:10 | 51.22438 | 8.57035 | 25438 ft | 435 kts | 47° |
| 2026-04-24 17:11 | 51.28323 | 8.68230 | 26525 ft | 443 kts | 48° |
| 2026-04-24 17:12 | 51.38278 | 8.87379 | 28188 ft | 455 kts | 48° |